sensor_id;sensor_type;location;lat;lon;timestamp;P1;durP1;ratioP1;P2;durP2;ratioP2
30948;SDS011;17637;51.984;21.208;2022-10-16T00:01:20;28.80;;;21.85;;
30948;SDS011;17637;51.984;21.208;2022-10-16T00:03:50;29.20;;;21.80;;
30948;SDS011;17637;51.984;21.208;2022-10-16T00:06:18;30.40;;;21.73;;
30948;SDS011;17637;51.984;21.208;2022-10-16T00:08:47;28.02;;;22.17;;
30948;SDS011;17637;51.984;21.208;2022-10-16T00:13:43;30.55;;;23.45;;
30948;SDS011;17637;51.984;21.208;2022-10-16T00:16:12;28.67;;;22.27;;
30948;SDS011;17637;51.984;21.208;2022-10-16T00:18:39;32.85;;;24.92;;
30948;SDS011;17637;51.984;21.208;2022-10-16T00:21:08;33.97;;;23.92;;
30948;SDS011;17637;51.984;21.208;2022-10-16T00:23:39;35.55;;;23.02;;
30948;SDS011;17637;51.984;21.208;2022-10-16T00:26:08;32.22;;;24.33;;
30948;SDS011;17637;51.984;21.208;2022-10-16T00:28:37;36.55;;;23.67;;
30948;SDS011;17637;51.984;21.208;2022-10-16T00:31:05;30.23;;;23.98;;
30948;SDS011;17637;51.984;21.208;2022-10-16T00:33:34;32.50;;;24.52;;
30948;SDS011;17637;51.984;21.208;2022-10-16T00:36:02;30.63;;;23.52;;
30948;SDS011;17637;51.984;21.208;2022-10-16T00:38:31;30.60;;;23.83;;
30948;SDS011;17637;51.984;21.208;2022-10-16T00:40:58;34.38;;;24.45;;
30948;SDS011;17637;51.984;21.208;2022-10-16T00:43:32;31.00;;;23.58;;
30948;SDS011;17637;51.984;21.208;2022-10-16T00:46:03;30.58;;;23.52;;
30948;SDS011;17637;51.984;21.208;2022-10-16T00:48:32;31.83;;;24.10;;
30948;SDS011;17637;51.984;21.208;2022-10-16T00:50:59;29.85;;;23.55;;
30948;SDS011;17637;51.984;21.208;2022-10-16T00:53:26;35.17;;;26.15;;
30948;SDS011;17637;51.984;21.208;2022-10-16T00:55:54;32.55;;;24.58;;
30948;SDS011;17637;51.984;21.208;2022-10-16T00:58:21;32.97;;;23.10;;
30948;SDS011;17637;51.984;21.208;2022-10-16T01:00:48;33.95;;;25.42;;
30948;SDS011;17637;51.984;21.208;2022-10-16T01:03:23;33.20;;;25.40;;
30948;SDS011;17637;51.984;21.208;2022-10-16T01:06:09;31.48;;;22.55;;
30948;SDS011;17637;51.984;21.208;2022-10-16T01:11:33;30.58;;;23.27;;
30948;SDS011;17637;51.984;21.208;2022-10-16T01:14:07;29.45;;;23.67;;
30948;SDS011;17637;51.984;21.208;2022-10-16T01:16:53;32.83;;;22.67;;
30948;SDS011;17637;51.984;21.208;2022-10-16T01:19:36;30.40;;;23.50;;
30948;SDS011;17637;51.984;21.208;2022-10-16T01:22:16;32.97;;;23.73;;
30948;SDS011;17637;51.984;21.208;2022-10-16T01:24:48;29.73;;;23.45;;
30948;SDS011;17637;51.984;21.208;2022-10-16T01:27:23;29.58;;;21.42;;
30948;SDS011;17637;51.984;21.208;2022-10-16T01:32:37;30.83;;;22.40;;
30948;SDS011;17637;51.984;21.208;2022-10-16T01:37:58;28.52;;;21.00;;
30948;SDS011;17637;51.984;21.208;2022-10-16T01:40:34;28.15;;;20.92;;
30948;SDS011;17637;51.984;21.208;2022-10-16T01:43:05;30.55;;;23.02;;
30948;SDS011;17637;51.984;21.208;2022-10-16T01:45:37;27.63;;;22.40;;
30948;SDS011;17637;51.984;21.208;2022-10-16T01:48:04;30.38;;;22.77;;
30948;SDS011;17637;51.984;21.208;2022-10-16T01:50:35;32.35;;;22.20;;
30948;SDS011;17637;51.984;21.208;2022-10-16T01:53:06;30.75;;;22.35;;
30948;SDS011;17637;51.984;21.208;2022-10-16T01:55:36;30.45;;;23.13;;
30948;SDS011;17637;51.984;21.208;2022-10-16T01:58:07;29.55;;;23.42;;
30948;SDS011;17637;51.984;21.208;2022-10-16T02:00:38;28.52;;;21.63;;
30948;SDS011;17637;51.984;21.208;2022-10-16T02:03:08;29.15;;;21.33;;
30948;SDS011;17637;51.984;21.208;2022-10-16T02:05:56;31.20;;;21.98;;
30948;SDS011;17637;51.984;21.208;2022-10-16T02:08:25;28.98;;;21.48;;
30948;SDS011;17637;51.984;21.208;2022-10-16T02:10:56;27.50;;;21.23;;
30948;SDS011;17637;51.984;21.208;2022-10-16T02:13:29;27.55;;;21.67;;
30948;SDS011;17637;51.984;21.208;2022-10-16T02:16:00;28.60;;;21.05;;
30948;SDS011;17637;51.984;21.208;2022-10-16T02:18:27;30.38;;;22.85;;
30948;SDS011;17637;51.984;21.208;2022-10-16T02:20:58;27.58;;;22.40;;
30948;SDS011;17637;51.984;21.208;2022-10-16T02:23:37;29.40;;;21.95;;
30948;SDS011;17637;51.984;21.208;2022-10-16T02:26:15;30.38;;;21.33;;
30948;SDS011;17637;51.984;21.208;2022-10-16T02:28:48;28.27;;;21.35;;
30948;SDS011;17637;51.984;21.208;2022-10-16T02:31:23;29.38;;;22.75;;
30948;SDS011;17637;51.984;21.208;2022-10-16T02:33:55;28.00;;;21.55;;
30948;SDS011;17637;51.984;21.208;2022-10-16T02:36:25;30.38;;;24.15;;
30948;SDS011;17637;51.984;21.208;2022-10-16T02:38:53;29.90;;;22.33;;
30948;SDS011;17637;51.984;21.208;2022-10-16T02:41:21;27.05;;;21.08;;
30948;SDS011;17637;51.984;21.208;2022-10-16T02:43:49;28.90;;;21.17;;
30948;SDS011;17637;51.984;21.208;2022-10-16T02:46:16;28.27;;;21.55;;
30948;SDS011;17637;51.984;21.208;2022-10-16T02:48:44;27.35;;;21.92;;
30948;SDS011;17637;51.984;21.208;2022-10-16T02:51:11;29.15;;;22.45;;
30948;SDS011;17637;51.984;21.208;2022-10-16T02:53:39;28.83;;;22.10;;
30948;SDS011;17637;51.984;21.208;2022-10-16T02:56:06;31.80;;;23.08;;
30948;SDS011;17637;51.984;21.208;2022-10-16T02:58:33;26.98;;;20.45;;
30948;SDS011;17637;51.984;21.208;2022-10-16T03:01:00;26.60;;;21.45;;
30948;SDS011;17637;51.984;21.208;2022-10-16T03:03:27;28.25;;;22.85;;
30948;SDS011;17637;51.984;21.208;2022-10-16T03:05:54;24.77;;;20.27;;
30948;SDS011;17637;51.984;21.208;2022-10-16T03:08:21;26.02;;;21.45;;
30948;SDS011;17637;51.984;21.208;2022-10-16T03:10:52;30.15;;;21.40;;
30948;SDS011;17637;51.984;21.208;2022-10-16T03:13:19;26.58;;;21.10;;
30948;SDS011;17637;51.984;21.208;2022-10-16T03:15:47;28.95;;;20.95;;
30948;SDS011;17637;51.984;21.208;2022-10-16T03:18:14;31.02;;;19.90;;
30948;SDS011;17637;51.984;21.208;2022-10-16T03:20:42;23.80;;;19.70;;
30948;SDS011;17637;51.984;21.208;2022-10-16T03:23:09;25.10;;;20.40;;
30948;SDS011;17637;51.984;21.208;2022-10-16T03:25:36;26.92;;;21.20;;
30948;SDS011;17637;51.984;21.208;2022-10-16T03:28:04;28.27;;;20.92;;
30948;SDS011;17637;51.984;21.208;2022-10-16T03:30:31;27.55;;;21.45;;
30948;SDS011;17637;51.984;21.208;2022-10-16T03:32:58;26.48;;;21.15;;
30948;SDS011;17637;51.984;21.208;2022-10-16T03:35:25;25.70;;;20.25;;
30948;SDS011;17637;51.984;21.208;2022-10-16T03:37:52;24.42;;;18.95;;
30948;SDS011;17637;51.984;21.208;2022-10-16T03:40:19;27.75;;;19.95;;
30948;SDS011;17637;51.984;21.208;2022-10-16T03:42:47;26.30;;;20.77;;
30948;SDS011;17637;51.984;21.208;2022-10-16T03:45:14;27.40;;;21.92;;
30948;SDS011;17637;51.984;21.208;2022-10-16T03:47:41;26.30;;;19.23;;
30948;SDS011;17637;51.984;21.208;2022-10-16T03:50:08;28.63;;;20.13;;
30948;SDS011;17637;51.984;21.208;2022-10-16T03:52:35;26.27;;;19.92;;
30948;SDS011;17637;51.984;21.208;2022-10-16T03:55:02;22.70;;;19.30;;
30948;SDS011;17637;51.984;21.208;2022-10-16T03:57:29;26.58;;;20.67;;
30948;SDS011;17637;51.984;21.208;2022-10-16T03:59:56;23.75;;;19.10;;
30948;SDS011;17637;51.984;21.208;2022-10-16T04:02:23;24.13;;;19.75;;
30948;SDS011;17637;51.984;21.208;2022-10-16T04:04:50;25.20;;;19.65;;
30948;SDS011;17637;51.984;21.208;2022-10-16T04:07:18;23.08;;;19.77;;
30948;SDS011;17637;51.984;21.208;2022-10-16T04:09:45;26.05;;;20.13;;
30948;SDS011;17637;51.984;21.208;2022-10-16T04:12:11;27.40;;;20.23;;
30948;SDS011;17637;51.984;21.208;2022-10-16T04:14:38;26.50;;;19.65;;
30948;SDS011;17637;51.984;21.208;2022-10-16T04:17:05;25.15;;;19.35;;
30948;SDS011;17637;51.984;21.208;2022-10-16T04:19:32;25.27;;;19.33;;
30948;SDS011;17637;51.984;21.208;2022-10-16T04:21:59;24.55;;;19.67;;
30948;SDS011;17637;51.984;21.208;2022-10-16T04:24:26;24.95;;;20.40;;
30948;SDS011;17637;51.984;21.208;2022-10-16T04:26:53;23.58;;;18.70;;
30948;SDS011;17637;51.984;21.208;2022-10-16T04:29:20;26.13;;;19.05;;
30948;SDS011;17637;51.984;21.208;2022-10-16T04:31:47;24.40;;;18.90;;
30948;SDS011;17637;51.984;21.208;2022-10-16T04:34:14;29.27;;;19.35;;
30948;SDS011;17637;51.984;21.208;2022-10-16T04:36:41;27.30;;;19.83;;
30948;SDS011;17637;51.984;21.208;2022-10-16T04:39:08;23.23;;;19.30;;
30948;SDS011;17637;51.984;21.208;2022-10-16T04:41:35;31.35;;;22.50;;
30948;SDS011;17637;51.984;21.208;2022-10-16T04:44:02;30.55;;;21.15;;
30948;SDS011;17637;51.984;21.208;2022-10-16T04:46:29;30.13;;;23.40;;
30948;SDS011;17637;51.984;21.208;2022-10-16T04:48:56;30.45;;;22.50;;
30948;SDS011;17637;51.984;21.208;2022-10-16T04:51:23;28.42;;;20.73;;
30948;SDS011;17637;51.984;21.208;2022-10-16T04:53:50;26.98;;;21.23;;
30948;SDS011;17637;51.984;21.208;2022-10-16T04:56:17;32.45;;;23.85;;
30948;SDS011;17637;51.984;21.208;2022-10-16T04:58:44;32.90;;;23.20;;
30948;SDS011;17637;51.984;21.208;2022-10-16T05:01:12;36.25;;;22.88;;
30948;SDS011;17637;51.984;21.208;2022-10-16T05:03:39;31.90;;;24.02;;
30948;SDS011;17637;51.984;21.208;2022-10-16T05:06:07;31.90;;;23.52;;
30948;SDS011;17637;51.984;21.208;2022-10-16T05:08:34;32.03;;;24.63;;
30948;SDS011;17637;51.984;21.208;2022-10-16T05:11:01;34.15;;;26.60;;
30948;SDS011;17637;51.984;21.208;2022-10-16T05:13:28;35.97;;;25.30;;
30948;SDS011;17637;51.984;21.208;2022-10-16T05:15:55;34.67;;;25.55;;
30948;SDS011;17637;51.984;21.208;2022-10-16T05:18:22;30.00;;;22.23;;
30948;SDS011;17637;51.984;21.208;2022-10-16T05:20:49;27.58;;;22.25;;
30948;SDS011;17637;51.984;21.208;2022-10-16T05:23:16;29.60;;;21.60;;
30948;SDS011;17637;51.984;21.208;2022-10-16T05:25:43;25.38;;;20.60;;
30948;SDS011;17637;51.984;21.208;2022-10-16T05:28:18;30.10;;;21.80;;
30948;SDS011;17637;51.984;21.208;2022-10-16T05:30:45;27.98;;;21.98;;
30948;SDS011;17637;51.984;21.208;2022-10-16T05:33:12;26.23;;;20.65;;
30948;SDS011;17637;51.984;21.208;2022-10-16T05:35:39;25.02;;;19.20;;
30948;SDS011;17637;51.984;21.208;2022-10-16T05:38:06;26.70;;;21.73;;
30948;SDS011;17637;51.984;21.208;2022-10-16T05:40:33;28.27;;;21.52;;
30948;SDS011;17637;51.984;21.208;2022-10-16T05:43:01;28.23;;;21.55;;
30948;SDS011;17637;51.984;21.208;2022-10-16T05:45:28;29.40;;;22.48;;
30948;SDS011;17637;51.984;21.208;2022-10-16T05:47:55;27.42;;;21.80;;
30948;SDS011;17637;51.984;21.208;2022-10-16T05:50:22;28.52;;;20.65;;
30948;SDS011;17637;51.984;21.208;2022-10-16T05:52:49;30.55;;;22.65;;
30948;SDS011;17637;51.984;21.208;2022-10-16T05:55:16;29.08;;;22.13;;
30948;SDS011;17637;51.984;21.208;2022-10-16T05:57:43;27.20;;;21.40;;
30948;SDS011;17637;51.984;21.208;2022-10-16T06:00:10;26.88;;;19.98;;
30948;SDS011;17637;51.984;21.208;2022-10-16T06:02:37;26.27;;;20.30;;
30948;SDS011;17637;51.984;21.208;2022-10-16T06:05:05;29.10;;;23.65;;
30948;SDS011;17637;51.984;21.208;2022-10-16T06:07:35;28.20;;;22.73;;
30948;SDS011;17637;51.984;21.208;2022-10-16T06:10:02;28.13;;;19.92;;
30948;SDS011;17637;51.984;21.208;2022-10-16T06:12:30;30.13;;;20.88;;
30948;SDS011;17637;51.984;21.208;2022-10-16T06:14:57;29.95;;;18.58;;
30948;SDS011;17637;51.984;21.208;2022-10-16T06:17:24;25.83;;;20.10;;
30948;SDS011;17637;51.984;21.208;2022-10-16T06:19:52;29.67;;;21.90;;
30948;SDS011;17637;51.984;21.208;2022-10-16T06:22:19;24.05;;;19.60;;
30948;SDS011;17637;51.984;21.208;2022-10-16T06:24:45;22.10;;;19.13;;
30948;SDS011;17637;51.984;21.208;2022-10-16T06:27:14;22.98;;;18.35;;
30948;SDS011;17637;51.984;21.208;2022-10-16T06:29:41;24.85;;;19.15;;
30948;SDS011;17637;51.984;21.208;2022-10-16T06:32:09;23.10;;;18.75;;
30948;SDS011;17637;51.984;21.208;2022-10-16T06:34:36;27.00;;;18.70;;
30948;SDS011;17637;51.984;21.208;2022-10-16T06:37:08;26.30;;;19.13;;
30948;SDS011;17637;51.984;21.208;2022-10-16T06:39:35;24.38;;;18.73;;
30948;SDS011;17637;51.984;21.208;2022-10-16T06:42:02;23.20;;;19.02;;
30948;SDS011;17637;51.984;21.208;2022-10-16T06:44:29;21.20;;;17.48;;
30948;SDS011;17637;51.984;21.208;2022-10-16T06:46:56;26.08;;;18.38;;
30948;SDS011;17637;51.984;21.208;2022-10-16T06:49:23;22.48;;;18.15;;
30948;SDS011;17637;51.984;21.208;2022-10-16T06:51:50;20.38;;;17.17;;
30948;SDS011;17637;51.984;21.208;2022-10-16T06:54:17;20.40;;;17.67;;
30948;SDS011;17637;51.984;21.208;2022-10-16T06:56:44;21.73;;;17.98;;
30948;SDS011;17637;51.984;21.208;2022-10-16T06:59:11;20.48;;;17.63;;
30948;SDS011;17637;51.984;21.208;2022-10-16T07:01:38;22.58;;;16.83;;
30948;SDS011;17637;51.984;21.208;2022-10-16T07:04:05;22.20;;;17.45;;
30948;SDS011;17637;51.984;21.208;2022-10-16T07:06:33;21.83;;;17.60;;
30948;SDS011;17637;51.984;21.208;2022-10-16T07:09:01;22.30;;;17.45;;
30948;SDS011;17637;51.984;21.208;2022-10-16T07:11:32;22.38;;;16.45;;
30948;SDS011;17637;51.984;21.208;2022-10-16T07:14:00;20.73;;;17.00;;
30948;SDS011;17637;51.984;21.208;2022-10-16T07:16:27;21.67;;;17.25;;
30948;SDS011;17637;51.984;21.208;2022-10-16T07:18:59;21.67;;;15.23;;
30948;SDS011;17637;51.984;21.208;2022-10-16T07:21:28;23.88;;;16.65;;
30948;SDS011;17637;51.984;21.208;2022-10-16T07:23:58;19.90;;;15.77;;
30948;SDS011;17637;51.984;21.208;2022-10-16T07:26:28;19.35;;;15.32;;
30948;SDS011;17637;51.984;21.208;2022-10-16T07:28:57;17.35;;;14.80;;
30948;SDS011;17637;51.984;21.208;2022-10-16T07:31:25;18.70;;;14.82;;
30948;SDS011;17637;51.984;21.208;2022-10-16T07:33:52;19.67;;;14.23;;
30948;SDS011;17637;51.984;21.208;2022-10-16T07:36:20;20.05;;;15.80;;
30948;SDS011;17637;51.984;21.208;2022-10-16T07:38:47;20.98;;;15.05;;
30948;SDS011;17637;51.984;21.208;2022-10-16T07:41:18;18.58;;;16.08;;
30948;SDS011;17637;51.984;21.208;2022-10-16T07:43:49;19.30;;;14.48;;
30948;SDS011;17637;51.984;21.208;2022-10-16T07:46:21;18.30;;;14.65;;
30948;SDS011;17637;51.984;21.208;2022-10-16T07:48:50;16.05;;;14.02;;
30948;SDS011;17637;51.984;21.208;2022-10-16T07:51:18;19.15;;;14.50;;
30948;SDS011;17637;51.984;21.208;2022-10-16T07:53:46;20.20;;;15.55;;
30948;SDS011;17637;51.984;21.208;2022-10-16T07:56:14;18.00;;;14.35;;
30948;SDS011;17637;51.984;21.208;2022-10-16T07:58:42;15.90;;;14.20;;
30948;SDS011;17637;51.984;21.208;2022-10-16T08:01:11;20.63;;;15.23;;
30948;SDS011;17637;51.984;21.208;2022-10-16T08:03:47;18.83;;;14.33;;
30948;SDS011;17637;51.984;21.208;2022-10-16T08:06:16;16.08;;;13.70;;
30948;SDS011;17637;51.984;21.208;2022-10-16T08:08:50;24.88;;;14.60;;
30948;SDS011;17637;51.984;21.208;2022-10-16T08:11:17;18.73;;;14.38;;
30948;SDS011;17637;51.984;21.208;2022-10-16T08:13:44;16.02;;;13.05;;
30948;SDS011;17637;51.984;21.208;2022-10-16T08:16:11;16.38;;;13.25;;
30948;SDS011;17637;51.984;21.208;2022-10-16T08:18:39;16.40;;;13.45;;
30948;SDS011;17637;51.984;21.208;2022-10-16T08:21:07;16.55;;;12.77;;
30948;SDS011;17637;51.984;21.208;2022-10-16T08:23:46;18.40;;;13.05;;
30948;SDS011;17637;51.984;21.208;2022-10-16T08:26:22;20.77;;;13.82;;
30948;SDS011;17637;51.984;21.208;2022-10-16T08:28:49;18.63;;;14.00;;
30948;SDS011;17637;51.984;21.208;2022-10-16T08:31:18;19.00;;;12.95;;
30948;SDS011;17637;51.984;21.208;2022-10-16T08:33:45;14.55;;;12.55;;
30948;SDS011;17637;51.984;21.208;2022-10-16T08:36:13;17.23;;;13.20;;
30948;SDS011;17637;51.984;21.208;2022-10-16T08:38:42;17.15;;;11.68;;
30948;SDS011;17637;51.984;21.208;2022-10-16T08:41:17;15.10;;;11.80;;
30948;SDS011;17637;51.984;21.208;2022-10-16T08:49:01;17.17;;;12.25;;
30948;SDS011;17637;51.984;21.208;2022-10-16T08:51:31;15.35;;;12.82;;
30948;SDS011;17637;51.984;21.208;2022-10-16T08:56:50;13.05;;;11.07;;
30948;SDS011;17637;51.984;21.208;2022-10-16T08:59:17;13.43;;;11.82;;
30948;SDS011;17637;51.984;21.208;2022-10-16T09:01:46;16.17;;;11.18;;
30948;SDS011;17637;51.984;21.208;2022-10-16T09:07:04;13.10;;;11.60;;
30948;SDS011;17637;51.984;21.208;2022-10-16T09:09:58;14.57;;;10.95;;
30948;SDS011;17637;51.984;21.208;2022-10-16T09:12:43;12.88;;;11.23;;
30948;SDS011;17637;51.984;21.208;2022-10-16T09:15:23;19.88;;;11.57;;
30948;SDS011;17637;51.984;21.208;2022-10-16T09:18:13;16.02;;;11.30;;
30948;SDS011;17637;51.984;21.208;2022-10-16T09:23:44;16.95;;;11.88;;
30948;SDS011;17637;51.984;21.208;2022-10-16T09:26:13;13.20;;;11.55;;
30948;SDS011;17637;51.984;21.208;2022-10-16T09:28:42;14.40;;;11.13;;
30948;SDS011;17637;51.984;21.208;2022-10-16T09:31:17;14.65;;;11.77;;
30948;SDS011;17637;51.984;21.208;2022-10-16T09:33:53;12.82;;;11.23;;
30948;SDS011;17637;51.984;21.208;2022-10-16T09:36:24;17.52;;;12.40;;
30948;SDS011;17637;51.984;21.208;2022-10-16T09:39:04;15.18;;;11.15;;
30948;SDS011;17637;51.984;21.208;2022-10-16T09:41:34;14.07;;;12.10;;
30948;SDS011;17637;51.984;21.208;2022-10-16T09:44:14;13.85;;;12.23;;
30948;SDS011;17637;51.984;21.208;2022-10-16T09:47:14;13.23;;;11.43;;
30948;SDS011;17637;51.984;21.208;2022-10-16T09:49:51;16.20;;;12.37;;
30948;SDS011;17637;51.984;21.208;2022-10-16T09:52:19;13.68;;;11.55;;
30948;SDS011;17637;51.984;21.208;2022-10-16T09:54:57;14.13;;;11.60;;
30948;SDS011;17637;51.984;21.208;2022-10-16T09:57:25;14.35;;;12.05;;
30948;SDS011;17637;51.984;21.208;2022-10-16T09:59:56;13.82;;;12.07;;
30948;SDS011;17637;51.984;21.208;2022-10-16T10:02:35;14.20;;;11.40;;
30948;SDS011;17637;51.984;21.208;2022-10-16T10:05:17;14.90;;;11.85;;
30948;SDS011;17637;51.984;21.208;2022-10-16T10:07:58;13.00;;;11.57;;
30948;SDS011;17637;51.984;21.208;2022-10-16T10:10:29;17.23;;;12.50;;
30948;SDS011;17637;51.984;21.208;2022-10-16T10:12:58;14.07;;;11.45;;
30948;SDS011;17637;51.984;21.208;2022-10-16T10:15:32;12.45;;;11.05;;
30948;SDS011;17637;51.984;21.208;2022-10-16T10:18:18;13.57;;;11.02;;
30948;SDS011;17637;51.984;21.208;2022-10-16T10:20:58;12.48;;;11.27;;
30948;SDS011;17637;51.984;21.208;2022-10-16T10:23:27;12.57;;;10.40;;
30948;SDS011;17637;51.984;21.208;2022-10-16T10:26:07;13.93;;;11.70;;
30948;SDS011;17637;51.984;21.208;2022-10-16T10:40:29;11.98;;;9.63;;
30948;SDS011;17637;51.984;21.208;2022-10-16T10:46:17;12.10;;;10.70;;
30948;SDS011;17637;51.984;21.208;2022-10-16T10:49:14;13.35;;;10.27;;
30948;SDS011;17637;51.984;21.208;2022-10-16T10:51:59;12.60;;;10.32;;
30948;SDS011;17637;51.984;21.208;2022-10-16T10:54:50;13.52;;;10.13;;
30948;SDS011;17637;51.984;21.208;2022-10-16T10:57:30;11.93;;;10.50;;
30948;SDS011;17637;51.984;21.208;2022-10-16T11:00:20;14.02;;;9.95;;
30948;SDS011;17637;51.984;21.208;2022-10-16T11:05:51;11.32;;;10.07;;
30948;SDS011;17637;51.984;21.208;2022-10-16T11:08:26;11.52;;;9.52;;
30948;SDS011;17637;51.984;21.208;2022-10-16T11:11:04;10.60;;;9.13;;
30948;SDS011;17637;51.984;21.208;2022-10-16T11:16:17;13.32;;;10.38;;
30948;SDS011;17637;51.984;21.208;2022-10-16T11:21:55;11.02;;;9.90;;
30948;SDS011;17637;51.984;21.208;2022-10-16T11:24:51;12.73;;;9.45;;
30948;SDS011;17637;51.984;21.208;2022-10-16T11:27:47;12.52;;;10.25;;
30948;SDS011;17637;51.984;21.208;2022-10-16T11:30:15;11.00;;;9.38;;
30948;SDS011;17637;51.984;21.208;2022-10-16T11:38:58;10.57;;;9.48;;
30948;SDS011;17637;51.984;21.208;2022-10-16T11:41:26;9.93;;;8.77;;
30948;SDS011;17637;51.984;21.208;2022-10-16T11:55:44;10.73;;;9.30;;
30948;SDS011;17637;51.984;21.208;2022-10-16T11:58:20;10.20;;;9.07;;
30948;SDS011;17637;51.984;21.208;2022-10-16T12:00:58;16.80;;;13.00;;
30948;SDS011;17637;51.984;21.208;2022-10-16T12:06:49;11.40;;;9.80;;
30948;SDS011;17637;51.984;21.208;2022-10-16T12:09:50;14.52;;;11.15;;
30948;SDS011;17637;51.984;21.208;2022-10-16T12:15:18;15.27;;;10.98;;
30948;SDS011;17637;51.984;21.208;2022-10-16T12:18:22;11.82;;;9.38;;
30948;SDS011;17637;51.984;21.208;2022-10-16T12:20:54;11.20;;;9.27;;
30948;SDS011;17637;51.984;21.208;2022-10-16T12:23:31;11.43;;;8.40;;
30948;SDS011;17637;51.984;21.208;2022-10-16T12:25:59;9.85;;;8.82;;
30948;SDS011;17637;51.984;21.208;2022-10-16T12:28:29;10.25;;;8.80;;
30948;SDS011;17637;51.984;21.208;2022-10-16T12:31:02;11.07;;;8.63;;
30948;SDS011;17637;51.984;21.208;2022-10-16T12:33:32;12.88;;;8.80;;
30948;SDS011;17637;51.984;21.208;2022-10-16T12:36:03;10.37;;;8.70;;
30948;SDS011;17637;51.984;21.208;2022-10-16T12:38:38;12.50;;;9.35;;
30948;SDS011;17637;51.984;21.208;2022-10-16T12:41:23;10.65;;;9.32;;
30948;SDS011;17637;51.984;21.208;2022-10-16T12:43:55;15.52;;;10.52;;
30948;SDS011;17637;51.984;21.208;2022-10-16T12:51:38;9.77;;;8.63;;
30948;SDS011;17637;51.984;21.208;2022-10-16T12:54:14;9.60;;;8.60;;
30948;SDS011;17637;51.984;21.208;2022-10-16T12:56:58;10.05;;;8.60;;
30948;SDS011;17637;51.984;21.208;2022-10-16T12:59:31;11.65;;;8.57;;
30948;SDS011;17637;51.984;21.208;2022-10-16T13:05:26;10.82;;;8.45;;
30948;SDS011;17637;51.984;21.208;2022-10-16T13:08:09;11.63;;;8.90;;
30948;SDS011;17637;51.984;21.208;2022-10-16T13:10:53;10.68;;;8.18;;
30948;SDS011;17637;51.984;21.208;2022-10-16T13:13:53;12.30;;;8.27;;
30948;SDS011;17637;51.984;21.208;2022-10-16T13:22:03;11.70;;;8.60;;
30948;SDS011;17637;51.984;21.208;2022-10-16T13:32:53;10.63;;;8.27;;
30948;SDS011;17637;51.984;21.208;2022-10-16T13:35:51;10.43;;;8.33;;
30948;SDS011;17637;51.984;21.208;2022-10-16T13:38:21;11.85;;;8.57;;
30948;SDS011;17637;51.984;21.208;2022-10-16T13:40:54;10.93;;;8.52;;
30948;SDS011;17637;51.984;21.208;2022-10-16T13:43:42;9.27;;;8.27;;
30948;SDS011;17637;51.984;21.208;2022-10-16T13:46:13;11.93;;;8.95;;
30948;SDS011;17637;51.984;21.208;2022-10-16T13:48:41;10.65;;;9.05;;
30948;SDS011;17637;51.984;21.208;2022-10-16T13:51:13;10.68;;;8.52;;
30948;SDS011;17637;51.984;21.208;2022-10-16T13:53:43;11.50;;;9.02;;
30948;SDS011;17637;51.984;21.208;2022-10-16T13:56:15;12.25;;;9.57;;
30948;SDS011;17637;51.984;21.208;2022-10-16T13:59:00;10.70;;;8.60;;
30948;SDS011;17637;51.984;21.208;2022-10-16T14:01:30;10.40;;;9.05;;
30948;SDS011;17637;51.984;21.208;2022-10-16T14:04:04;13.00;;;9.27;;
30948;SDS011;17637;51.984;21.208;2022-10-16T14:06:33;11.80;;;8.93;;
30948;SDS011;17637;51.984;21.208;2022-10-16T14:09:36;18.27;;;8.82;;
30948;SDS011;17637;51.984;21.208;2022-10-16T14:12:06;12.73;;;9.23;;
30948;SDS011;17637;51.984;21.208;2022-10-16T14:14:41;12.10;;;8.85;;
30948;SDS011;17637;51.984;21.208;2022-10-16T14:17:29;11.68;;;9.80;;
30948;SDS011;17637;51.984;21.208;2022-10-16T14:20:00;12.25;;;9.40;;
30948;SDS011;17637;51.984;21.208;2022-10-16T14:27:56;9.15;;;8.25;;
30948;SDS011;17637;51.984;21.208;2022-10-16T14:30:24;13.75;;;9.10;;
30948;SDS011;17637;51.984;21.208;2022-10-16T14:32:55;11.73;;;9.82;;
30948;SDS011;17637;51.984;21.208;2022-10-16T14:35:29;11.27;;;9.10;;
30948;SDS011;17637;51.984;21.208;2022-10-16T14:37:59;10.13;;;9.05;;
30948;SDS011;17637;51.984;21.208;2022-10-16T14:40:29;11.02;;;9.02;;
30948;SDS011;17637;51.984;21.208;2022-10-16T14:42:58;9.80;;;8.80;;
30948;SDS011;17637;51.984;21.208;2022-10-16T14:45:28;11.73;;;9.27;;
30948;SDS011;17637;51.984;21.208;2022-10-16T14:47:58;11.57;;;9.90;;
30948;SDS011;17637;51.984;21.208;2022-10-16T14:50:27;11.27;;;9.33;;
30948;SDS011;17637;51.984;21.208;2022-10-16T14:52:55;12.73;;;9.65;;
30948;SDS011;17637;51.984;21.208;2022-10-16T14:55:22;10.50;;;9.38;;
30948;SDS011;17637;51.984;21.208;2022-10-16T14:57:50;12.05;;;9.88;;
30948;SDS011;17637;51.984;21.208;2022-10-16T15:00:23;11.05;;;9.77;;
30948;SDS011;17637;51.984;21.208;2022-10-16T15:02:51;12.32;;;9.82;;
30948;SDS011;17637;51.984;21.208;2022-10-16T15:05:22;11.07;;;9.48;;
30948;SDS011;17637;51.984;21.208;2022-10-16T15:07:51;14.00;;;10.38;;
30948;SDS011;17637;51.984;21.208;2022-10-16T15:10:21;13.37;;;9.93;;
30948;SDS011;17637;51.984;21.208;2022-10-16T15:12:50;11.35;;;9.02;;
30948;SDS011;17637;51.984;21.208;2022-10-16T15:15:34;12.95;;;9.13;;
30948;SDS011;17637;51.984;21.208;2022-10-16T15:18:03;9.75;;;8.63;;
30948;SDS011;17637;51.984;21.208;2022-10-16T15:20:32;14.82;;;10.55;;
30948;SDS011;17637;51.984;21.208;2022-10-16T15:23:05;15.40;;;11.38;;
30948;SDS011;17637;51.984;21.208;2022-10-16T15:25:53;16.85;;;12.27;;
30948;SDS011;17637;51.984;21.208;2022-10-16T15:28:21;15.48;;;12.90;;
30948;SDS011;17637;51.984;21.208;2022-10-16T15:30:50;14.73;;;12.10;;
30948;SDS011;17637;51.984;21.208;2022-10-16T15:33:23;17.27;;;12.25;;
30948;SDS011;17637;51.984;21.208;2022-10-16T15:35:54;17.05;;;12.00;;
30948;SDS011;17637;51.984;21.208;2022-10-16T15:38:21;15.20;;;12.68;;
30948;SDS011;17637;51.984;21.208;2022-10-16T15:40:49;15.52;;;13.05;;
30948;SDS011;17637;51.984;21.208;2022-10-16T15:43:16;15.70;;;12.98;;
30948;SDS011;17637;51.984;21.208;2022-10-16T15:45:43;20.08;;;13.88;;
30948;SDS011;17637;51.984;21.208;2022-10-16T15:48:12;15.80;;;12.35;;
30948;SDS011;17637;51.984;21.208;2022-10-16T15:50:40;17.42;;;12.18;;
30948;SDS011;17637;51.984;21.208;2022-10-16T15:53:09;13.70;;;11.40;;
30948;SDS011;17637;51.984;21.208;2022-10-16T15:55:36;16.17;;;12.93;;
30948;SDS011;17637;51.984;21.208;2022-10-16T15:58:04;23.50;;;15.93;;
30948;SDS011;17637;51.984;21.208;2022-10-16T16:00:32;19.60;;;14.57;;
30948;SDS011;17637;51.984;21.208;2022-10-16T16:02:59;24.75;;;14.75;;
30948;SDS011;17637;51.984;21.208;2022-10-16T16:05:26;21.73;;;15.45;;
30948;SDS011;17637;51.984;21.208;2022-10-16T16:07:54;18.83;;;14.50;;
30948;SDS011;17637;51.984;21.208;2022-10-16T16:10:21;21.55;;;15.20;;
30948;SDS011;17637;51.984;21.208;2022-10-16T16:12:48;21.35;;;16.02;;
30948;SDS011;17637;51.984;21.208;2022-10-16T16:15:20;20.13;;;15.25;;